sensor_id;sensor_type;location;lat;lon;timestamp;temperature;humidity
3268;DHT22;1646;52.450;13.326;2023-05-14T00:00:05;16.00;82.80
3268;DHT22;1646;52.450;13.326;2023-05-14T00:05:07;15.90;83.00
3268;DHT22;1646;52.450;13.326;2023-05-14T00:10:07;15.90;84.70
3268;DHT22;1646;52.450;13.326;2023-05-14T00:15:06;15.80;86.40
3268;DHT22;1646;52.450;13.326;2023-05-14T00:20:07;15.80;85.90
3268;DHT22;1646;52.450;13.326;2023-05-14T00:25:07;15.80;86.30
3268;DHT22;1646;52.450;13.326;2023-05-14T00:30:07;15.70;88.30
3268;DHT22;1646;52.450;13.326;2023-05-14T00:35:07;15.70;88.30
3268;DHT22;1646;52.450;13.326;2023-05-14T00:40:07;15.70;88.50
3268;DHT22;1646;52.450;13.326;2023-05-14T00:45:09;15.70;89.20
3268;DHT22;1646;52.450;13.326;2023-05-14T00:50:10;15.60;89.90
3268;DHT22;1646;52.450;13.326;2023-05-14T00:55:09;15.60;90.50
3268;DHT22;1646;52.450;13.326;2023-05-14T01:00:12;15.60;90.80
3268;DHT22;1646;52.450;13.326;2023-05-14T01:05:12;15.60;91.50
3268;DHT22;1646;52.450;13.326;2023-05-14T01:10:14;15.60;92.10
3268;DHT22;1646;52.450;13.326;2023-05-14T01:15:19;15.50;92.10
3268;DHT22;1646;52.450;13.326;2023-05-14T01:20:19;15.50;92.90
3268;DHT22;1646;52.450;13.326;2023-05-14T01:25:19;15.40;92.40
3268;DHT22;1646;52.450;13.326;2023-05-14T01:30:21;15.40;93.40
3268;DHT22;1646;52.450;13.326;2023-05-14T01:35:24;15.30;93.20
3268;DHT22;1646;52.450;13.326;2023-05-14T01:40:24;15.20;93.00
3268;DHT22;1646;52.450;13.326;2023-05-14T01:45:23;15.10;92.90
3268;DHT22;1646;52.450;13.326;2023-05-14T01:50:21;15.00;93.90
3268;DHT22;1646;52.450;13.326;2023-05-14T01:55:20;15.00;94.10
3268;DHT22;1646;52.450;13.326;2023-05-14T02:00:22;14.90;94.70
3268;DHT22;1646;52.450;13.326;2023-05-14T02:05:21;14.90;94.70
3268;DHT22;1646;52.450;13.326;2023-05-14T02:10:19;14.90;94.60
3268;DHT22;1646;52.450;13.326;2023-05-14T02:15:18;14.90;94.70
3268;DHT22;1646;52.450;13.326;2023-05-14T02:20:18;14.90;94.40
3268;DHT22;1646;52.450;13.326;2023-05-14T02:25:16;14.90;94.60
3268;DHT22;1646;52.450;13.326;2023-05-14T02:30:15;14.90;95.20
3268;DHT22;1646;52.450;13.326;2023-05-14T02:35:13;14.90;95.20
3268;DHT22;1646;52.450;13.326;2023-05-14T02:40:13;15.00;94.90
3268;DHT22;1646;52.450;13.326;2023-05-14T02:45:11;15.00;95.10
3268;DHT22;1646;52.450;13.326;2023-05-14T02:50:10;15.00;95.20
3268;DHT22;1646;52.450;13.326;2023-05-14T02:55:09;15.00;95.30
3268;DHT22;1646;52.450;13.326;2023-05-14T03:00:10;15.10;95.80
3268;DHT22;1646;52.450;13.326;2023-05-14T03:05:09;15.10;95.70
3268;DHT22;1646;52.450;13.326;2023-05-14T03:10:08;15.20;95.60
3268;DHT22;1646;52.450;13.326;2023-05-14T03:15:07;15.20;95.70
3268;DHT22;1646;52.450;13.326;2023-05-14T03:20:08;15.30;95.80
3268;DHT22;1646;52.450;13.326;2023-05-14T03:25:07;15.40;95.60
3268;DHT22;1646;52.450;13.326;2023-05-14T03:30:06;15.50;95.50
3268;DHT22;1646;52.450;13.326;2023-05-14T03:35:07;15.50;95.50
3268;DHT22;1646;52.450;13.326;2023-05-14T03:40:06;15.60;96.00
3268;DHT22;1646;52.450;13.326;2023-05-14T03:45:06;15.60;95.60
3268;DHT22;1646;52.450;13.326;2023-05-14T03:50:07;15.70;95.20
3268;DHT22;1646;52.450;13.326;2023-05-14T03:55:06;15.70;95.30
3268;DHT22;1646;52.450;13.326;2023-05-14T04:00:06;15.80;95.10
3268;DHT22;1646;52.450;13.326;2023-05-14T04:05:13;15.70;94.00
3268;DHT22;1646;52.450;13.326;2023-05-14T04:10:12;15.70;94.10
3268;DHT22;1646;52.450;13.326;2023-05-14T04:15:11;15.70;94.20
3268;DHT22;1646;52.450;13.326;2023-05-14T04:20:09;15.70;95.20
3268;DHT22;1646;52.450;13.326;2023-05-14T04:25:09;15.60;95.10
3268;DHT22;1646;52.450;13.326;2023-05-14T04:30:09;15.50;94.90
3268;DHT22;1646;52.450;13.326;2023-05-14T04:35:08;15.50;95.10
3268;DHT22;1646;52.450;13.326;2023-05-14T04:40:10;15.40;95.70
3268;DHT22;1646;52.450;13.326;2023-05-14T04:45:09;15.50;95.50
3268;DHT22;1646;52.450;13.326;2023-05-14T04:50:09;15.60;95.50
3268;DHT22;1646;52.450;13.326;2023-05-14T04:55:10;15.70;95.50
3268;DHT22;1646;52.450;13.326;2023-05-14T05:00:09;15.80;95.10
3268;DHT22;1646;52.450;13.326;2023-05-14T05:05:08;15.90;94.90
3268;DHT22;1646;52.450;13.326;2023-05-14T05:10:08;16.00;94.60
3268;DHT22;1646;52.450;13.326;2023-05-14T05:15:08;16.10;94.50
3268;DHT22;1646;52.450;13.326;2023-05-14T05:20:07;16.20;94.70
3268;DHT22;1646;52.450;13.326;2023-05-14T05:25:06;16.30;94.10
3268;DHT22;1646;52.450;13.326;2023-05-14T05:30:08;16.30;93.80
3268;DHT22;1646;52.450;13.326;2023-05-14T05:35:07;16.30;94.00
3268;DHT22;1646;52.450;13.326;2023-05-14T05:40:06;16.40;93.90
3268;DHT22;1646;52.450;13.326;2023-05-14T05:45:08;16.40;94.20
3268;DHT22;1646;52.450;13.326;2023-05-14T05:50:07;16.60;94.30
3268;DHT22;1646;52.450;13.326;2023-05-14T05:55:06;16.80;94.50
3268;DHT22;1646;52.450;13.326;2023-05-14T06:00:07;17.00;93.90
3268;DHT22;1646;52.450;13.326;2023-05-14T06:05:09;17.10;93.90
3268;DHT22;1646;52.450;13.326;2023-05-14T06:10:08;17.30;93.80
3268;DHT22;1646;52.450;13.326;2023-05-14T06:15:08;17.50;93.80
3268;DHT22;1646;52.450;13.326;2023-05-14T06:20:08;17.60;93.00
3268;DHT22;1646;52.450;13.326;2023-05-14T06:25:07;17.80;93.50
3268;DHT22;1646;52.450;13.326;2023-05-14T06:30:08;18.00;93.10
3268;DHT22;1646;52.450;13.326;2023-05-14T06:35:07;18.00;92.50
3268;DHT22;1646;52.450;13.326;2023-05-14T06:40:07;18.10;93.10
3268;DHT22;1646;52.450;13.326;2023-05-14T06:45:07;18.20;93.20
3268;DHT22;1646;52.450;13.326;2023-05-14T06:50:06;18.40;93.30
3268;DHT22;1646;52.450;13.326;2023-05-14T06:55:07;18.60;92.60
3268;DHT22;1646;52.450;13.326;2023-05-14T07:00:08;18.60;92.50
3268;DHT22;1646;52.450;13.326;2023-05-14T07:05:07;18.70;92.50
3268;DHT22;1646;52.450;13.326;2023-05-14T07:10:06;18.80;91.50
3268;DHT22;1646;52.450;13.326;2023-05-14T07:15:06;19.00;91.70
3268;DHT22;1646;52.450;13.326;2023-05-14T07:20:07;19.20;90.90
3268;DHT22;1646;52.450;13.326;2023-05-14T07:25:06;19.40;90.00
3268;DHT22;1646;52.450;13.326;2023-05-14T07:30:05;19.50;90.80
3268;DHT22;1646;52.450;13.326;2023-05-14T07:35:06;19.60;88.60
3268;DHT22;1646;52.450;13.326;2023-05-14T07:40:06;19.60;87.60
3268;DHT22;1646;52.450;13.326;2023-05-14T07:45:05;19.90;89.70
3268;DHT22;1646;52.450;13.326;2023-05-14T07:50:03;20.30;87.50
3268;DHT22;1646;52.450;13.326;2023-05-14T07:55:04;20.60;84.90
3268;DHT22;1646;52.450;13.326;2023-05-14T08:00:03;20.90;84.40
3268;DHT22;1646;52.450;13.326;2023-05-14T08:05:08;21.00;82.30
3268;DHT22;1646;52.450;13.326;2023-05-14T08:10:08;21.20;80.40
3268;DHT22;1646;52.450;13.326;2023-05-14T08:15:08;21.20;77.70
3268;DHT22;1646;52.450;13.326;2023-05-14T08:20:07;21.30;77.70
3268;DHT22;1646;52.450;13.326;2023-05-14T08:25:09;21.50;80.20
3268;DHT22;1646;52.450;13.326;2023-05-14T08:30:08;21.70;74.40
3268;DHT22;1646;52.450;13.326;2023-05-14T08:35:07;22.10;75.30
3268;DHT22;1646;52.450;13.326;2023-05-14T08:40:07;22.40;73.50
3268;DHT22;1646;52.450;13.326;2023-05-14T08:45:12;22.80;75.10
3268;DHT22;1646;52.450;13.326;2023-05-14T08:50:11;23.30;74.00
3268;DHT22;1646;52.450;13.326;2023-05-14T08:55:11;23.40;68.40
3268;DHT22;1646;52.450;13.326;2023-05-14T09:00:11;23.00;69.30
3268;DHT22;1646;52.450;13.326;2023-05-14T09:05:11;23.10;67.60
3268;DHT22;1646;52.450;13.326;2023-05-14T09:10:09;22.70;66.80
3268;DHT22;1646;52.450;13.326;2023-05-14T09:15:09;22.40;67.40
3268;DHT22;1646;52.450;13.326;2023-05-14T09:20:09;22.70;66.80
3268;DHT22;1646;52.450;13.326;2023-05-14T09:25:10;23.30;63.30
3268;DHT22;1646;52.450;13.326;2023-05-14T09:30:11;24.50;63.10
3268;DHT22;1646;52.450;13.326;2023-05-14T09:35:14;25.70;66.60
3268;DHT22;1646;52.450;13.326;2023-05-14T09:40:14;26.60;60.00
3268;DHT22;1646;52.450;13.326;2023-05-14T09:45:15;26.50;57.50
3268;DHT22;1646;52.450;13.326;2023-05-14T09:50:13;26.30;63.60
3268;DHT22;1646;52.450;13.326;2023-05-14T09:55:12;27.30;62.50
3268;DHT22;1646;52.450;13.326;2023-05-14T10:00:12;27.50;53.60
3268;DHT22;1646;52.450;13.326;2023-05-14T10:05:13;26.60;51.90
3268;DHT22;1646;52.450;13.326;2023-05-14T10:10:14;25.50;53.50
3268;DHT22;1646;52.450;13.326;2023-05-14T10:15:17;24.40;54.80
3268;DHT22;1646;52.450;13.326;2023-05-14T10:20:18;23.50;56.50
3268;DHT22;1646;52.450;13.326;2023-05-14T10:25:18;22.80;56.90
3268;DHT22;1646;52.450;13.326;2023-05-14T10:30:20;22.60;58.90
3268;DHT22;1646;52.450;13.326;2023-05-14T10:35:20;22.40;60.10
3268;DHT22;1646;52.450;13.326;2023-05-14T10:40:22;22.10;58.90
3268;DHT22;1646;52.450;13.326;2023-05-14T10:45:22;21.80;59.40
3268;DHT22;1646;52.450;13.326;2023-05-14T10:50:22;21.60;59.30
3268;DHT22;1646;52.450;13.326;2023-05-14T10:55:21;21.40;59.70
3268;DHT22;1646;52.450;13.326;2023-05-14T11:00:24;21.20;59.50
3268;DHT22;1646;52.450;13.326;2023-05-14T11:05:25;21.20;60.00
3268;DHT22;1646;52.450;13.326;2023-05-14T11:10:24;21.20;59.40
3268;DHT22;1646;52.450;13.326;2023-05-14T11:15:25;21.20;60.40
3268;DHT22;1646;52.450;13.326;2023-05-14T11:20:25;21.20;59.20
3268;DHT22;1646;52.450;13.326;2023-05-14T11:25:23;21.00;59.80
3268;DHT22;1646;52.450;13.326;2023-05-14T11:30:22;21.10;61.30
3268;DHT22;1646;52.450;13.326;2023-05-14T11:35:21;21.10;60.60
3268;DHT22;1646;52.450;13.326;2023-05-14T11:40:21;21.10;60.00
3268;DHT22;1646;52.450;13.326;2023-05-14T11:45:26;21.20;59.80
3268;DHT22;1646;52.450;13.326;2023-05-14T11:50:25;21.50;60.50
3268;DHT22;1646;52.450;13.326;2023-05-14T11:55:25;22.00;61.50
3268;DHT22;1646;52.450;13.326;2023-05-14T12:00:25;22.30;61.50
3268;DHT22;1646;52.450;13.326;2023-05-14T12:05:24;22.50;62.20
3268;DHT22;1646;52.450;13.326;2023-05-14T12:10:22;22.40;61.70
3268;DHT22;1646;52.450;13.326;2023-05-14T12:15:24;22.20;61.00
3268;DHT22;1646;52.450;13.326;2023-05-14T12:20:22;22.10;61.90
3268;DHT22;1646;52.450;13.326;2023-05-14T12:25:24;22.10;63.80
3268;DHT22;1646;52.450;13.326;2023-05-14T12:30:24;22.20;63.10
3268;DHT22;1646;52.450;13.326;2023-05-14T12:35:22;22.30;62.40
3268;DHT22;1646;52.450;13.326;2023-05-14T12:40:21;22.60;61.70
3268;DHT22;1646;52.450;13.326;2023-05-14T12:45:19;22.60;61.00
3268;DHT22;1646;52.450;13.326;2023-05-14T12:50:19;22.90;61.10
3268;DHT22;1646;52.450;13.326;2023-05-14T12:55:17;23.20;59.60
3268;DHT22;1646;52.450;13.326;2023-05-14T13:00:16;23.40;62.40
3268;DHT22;1646;52.450;13.326;2023-05-14T13:05:14;23.70;63.30
3268;DHT22;1646;52.450;13.326;2023-05-14T13:10:14;23.80;60.70
3268;DHT22;1646;52.450;13.326;2023-05-14T13:15:14;23.70;61.80
3268;DHT22;1646;52.450;13.326;2023-05-14T13:20:12;23.40;59.60
3268;DHT22;1646;52.450;13.326;2023-05-14T13:25:11;23.00;58.80
3268;DHT22;1646;52.450;13.326;2023-05-14T13:30:11;22.70;59.10
3268;DHT22;1646;52.450;13.326;2023-05-14T13:35:09;22.50;59.50
3268;DHT22;1646;52.450;13.326;2023-05-14T13:40:08;22.50;59.40
3268;DHT22;1646;52.450;13.326;2023-05-14T13:45:08;22.40;58.40
3268;DHT22;1646;52.450;13.326;2023-05-14T13:50:09;22.40;58.10
3268;DHT22;1646;52.450;13.326;2023-05-14T13:55:07;22.30;59.30
3268;DHT22;1646;52.450;13.326;2023-05-14T14:00:07;22.20;58.60
3268;DHT22;1646;52.450;13.326;2023-05-14T14:05:06;22.00;58.70
3268;DHT22;1646;52.450;13.326;2023-05-14T14:10:07;21.80;59.10
3268;DHT22;1646;52.450;13.326;2023-05-14T14:15:07;21.70;60.10
3268;DHT22;1646;52.450;13.326;2023-05-14T14:20:06;21.70;59.40
3268;DHT22;1646;52.450;13.326;2023-05-14T14:25:07;21.70;59.50
3268;DHT22;1646;52.450;13.326;2023-05-14T14:30:07;21.70;60.40
3268;DHT22;1646;52.450;13.326;2023-05-14T14:35:12;21.70;59.60
3268;DHT22;1646;52.450;13.326;2023-05-14T14:40:12;21.70;59.00
3268;DHT22;1646;52.450;13.326;2023-05-14T14:45:11;21.70;58.80
3268;DHT22;1646;52.450;13.326;2023-05-14T14:50:09;21.70;58.70
3268;DHT22;1646;52.450;13.326;2023-05-14T14:55:08;21.90;58.70
3268;DHT22;1646;52.450;13.326;2023-05-14T15:00:09;22.10;59.80
3268;DHT22;1646;52.450;13.326;2023-05-14T15:05:08;22.40;58.20
3268;DHT22;1646;52.450;13.326;2023-05-14T15:10:07;22.60;58.70
3268;DHT22;1646;52.450;13.326;2023-05-14T15:15:08;22.80;58.10
3268;DHT22;1646;52.450;13.326;2023-05-14T15:20:07;23.00;58.00
3268;DHT22;1646;52.450;13.326;2023-05-14T15:25:07;23.10;56.80
3268;DHT22;1646;52.450;13.326;2023-05-14T15:30:08;23.20;57.30
3268;DHT22;1646;52.450;13.326;2023-05-14T15:35:07;23.30;56.30
3268;DHT22;1646;52.450;13.326;2023-05-14T15:40:06;23.10;56.20
3268;DHT22;1646;52.450;13.326;2023-05-14T15:45:05;23.50;56.80
3268;DHT22;1646;52.450;13.326;2023-05-14T15:50:07;24.20;55.50
3268;DHT22;1646;52.450;13.326;2023-05-14T15:55:06;24.20;56.30
3268;DHT22;1646;52.450;13.326;2023-05-14T16:00:05;24.20;56.50
3268;DHT22;1646;52.450;13.326;2023-05-14T16:05:08;23.90;54.30
3268;DHT22;1646;52.450;13.326;2023-05-14T16:10:07;23.50;55.40
3268;DHT22;1646;52.450;13.326;2023-05-14T16:15:06;23.20;56.80
3268;DHT22;1646;52.450;13.326;2023-05-14T16:20:07;23.00;55.80
3268;DHT22;1646;52.450;13.326;2023-05-14T16:25:06;22.60;55.70
3268;DHT22;1646;52.450;13.326;2023-05-14T16:30:06;22.30;56.30
3268;DHT22;1646;52.450;13.326;2023-05-14T16:35:05;22.20;56.90
3268;DHT22;1646;52.450;13.326;2023-05-14T16:40:05;22.40;58.40
3268;DHT22;1646;52.450;13.326;2023-05-14T16:45:08;22.90;58.10
3268;DHT22;1646;52.450;13.326;2023-05-14T16:50:06;23.10;57.80
3268;DHT22;1646;52.450;13.326;2023-05-14T16:55:07;23.20;56.50
3268;DHT22;1646;52.450;13.326;2023-05-14T17:00:07;23.00;56.80
3268;DHT22;1646;52.450;13.326;2023-05-14T17:05:06;23.10;58.20
3268;DHT22;1646;52.450;13.326;2023-05-14T17:10:07;23.40;58.40
3268;DHT22;1646;52.450;13.326;2023-05-14T17:15:07;23.50;56.70
3268;DHT22;1646;52.450;13.326;2023-05-14T17:20:06;23.50;57.10
3268;DHT22;1646;52.450;13.326;2023-05-14T17:25:07;23.30;56.70
3268;DHT22;1646;52.450;13.326;2023-05-14T17:30:07;23.00;56.50
3268;DHT22;1646;52.450;13.326;2023-05-14T17:35:05;22.60;57.10
3268;DHT22;1646;52.450;13.326;2023-05-14T17:40:08;22.40;57.60
3268;DHT22;1646;52.450;13.326;2023-05-14T17:45:07;22.30;57.70
3268;DHT22;1646;52.450;13.326;2023-05-14T17:50:06;22.10;57.90
3268;DHT22;1646;52.450;13.326;2023-05-14T17:55:07;21.90;58.00
3268;DHT22;1646;52.450;13.326;2023-05-14T18:00:06;21.70;58.60
3268;DHT22;1646;52.450;13.326;2023-05-14T18:05:08;21.60;58.30
3268;DHT22;1646;52.450;13.326;2023-05-14T18:10:08;21.40;59.10
3268;DHT22;1646;52.450;13.326;2023-05-14T18:15:07;21.20;59.30
3268;DHT22;1646;52.450;13.326;2023-05-14T18:20:07;21.10;59.40
3268;DHT22;1646;52.450;13.326;2023-05-14T18:25:06;21.00;59.20
3268;DHT22;1646;52.450;13.326;2023-05-14T18:30:09;20.90;59.90
3268;DHT22;1646;52.450;13.326;2023-05-14T18:35:07;20.80;59.50
3268;DHT22;1646;52.450;13.326;2023-05-14T18:40:07;20.70;59.80
3268;DHT22;1646;52.450;13.326;2023-05-14T18:45:08;20.60;60.90
3268;DHT22;1646;52.450;13.326;2023-05-14T18:50:07;20.50;60.60
3268;DHT22;1646;52.450;13.326;2023-05-14T18:55:06;20.50;61.20
3268;DHT22;1646;52.450;13.326;2023-05-14T19:00:07;20.40;62.30
3268;DHT22;1646;52.450;13.326;2023-05-14T19:05:06;20.30;63.10
3268;DHT22;1646;52.450;13.326;2023-05-14T19:10:05;20.30;62.80
3268;DHT22;1646;52.450;13.326;2023-05-14T19:15:05;20.10;62.70
3268;DHT22;1646;52.450;13.326;2023-05-14T19:20:05;20.00;63.10
3268;DHT22;1646;52.450;13.326;2023-05-14T19:25:05;19.80;63.40
3268;DHT22;1646;52.450;13.326;2023-05-14T19:30:05;19.70;64.90
3268;DHT22;1646;52.450;13.326;2023-05-14T19:35:05;19.50;64.10
3268;DHT22;1646;52.450;13.326;2023-05-14T19:40:04;19.30;64.60
3268;DHT22;1646;52.450;13.326;2023-05-14T19:45:03;19.20;64.90
3268;DHT22;1646;52.450;13.326;2023-05-14T19:50:02;19.10;65.30
3268;DHT22;1646;52.450;13.326;2023-05-14T19:55:02;18.90;65.70
3268;DHT22;1646;52.450;13.326;2023-05-14T20:00:00;18.70;65.80
3268;DHT22;1646;52.450;13.326;2023-05-14T20:05:07;18.60;65.80
3268;DHT22;1646;52.450;13.326;2023-05-14T20:10:08;18.40;67.70
3268;DHT22;1646;52.450;13.326;2023-05-14T20:15:08;18.30;68.60
3268;DHT22;1646;52.450;13.326;2023-05-14T20:20:07;18.20;68.50
3268;DHT22;1646;52.450;13.326;2023-05-14T20:25:07;18.10;70.00
3268;DHT22;1646;52.450;13.326;2023-05-14T20:30:07;18.00;69.80
3268;DHT22;1646;52.450;13.326;2023-05-14T20:35:06;17.90;70.10
3268;DHT22;1646;52.450;13.326;2023-05-14T20:40:05;17.80;70.20
3268;DHT22;1646;52.450;13.326;2023-05-14T20:45:08;17.70;71.80
3268;DHT22;1646;52.450;13.326;2023-05-14T20:50:07;17.60;73.40
3268;DHT22;1646;52.450;13.326;2023-05-14T20:55:06;17.60;74.00
3268;DHT22;1646;52.450;13.326;2023-05-14T21:00:07;17.50;73.30
3268;DHT22;1646;52.450;13.326;2023-05-14T21:05:06;17.50;73.10
3268;DHT22;1646;52.450;13.326;2023-05-14T21:10:05;17.40;73.90
3268;DHT22;1646;52.450;13.326;2023-05-14T21:15:04;17.50;75.90
3268;DHT22;1646;52.450;13.326;2023-05-14T21:20:05;17.50;75.70
3268;DHT22;1646;52.450;13.326;2023-05-14T21:25:04;17.50;76.00
3268;DHT22;1646;52.450;13.326;2023-05-14T21:30:03;17.50;77.80
3268;DHT22;1646;52.450;13.326;2023-05-14T21:35:02;17.50;78.80
3268;DHT22;1646;52.450;13.326;2023-05-14T21:40:02;17.40;77.80
3268;DHT22;1646;52.450;13.326;2023-05-14T21:45:01;17.40;77.70
3268;DHT22;1646;52.450;13.326;2023-05-14T21:49:59;17.30;78.90
3268;DHT22;1646;52.450;13.326;2023-05-14T21:54:57;17.20;78.40
3268;DHT22;1646;52.450;13.326;2023-05-14T21:59:57;17.10;78.80
3268;DHT22;1646;52.450;13.326;2023-05-14T22:04:55;17.10;80.60
3268;DHT22;1646;52.450;13.326;2023-05-14T22:09:54;17.00;79.70
3268;DHT22;1646;52.450;13.326;2023-05-14T22:14:52;16.90;79.70
3268;DHT22;1646;52.450;13.326;2023-05-14T22:19:52;16.80;80.10
3268;DHT22;1646;52.450;13.326;2023-05-14T22:24:50;16.70;81.80
3268;DHT22;1646;52.450;13.326;2023-05-14T22:29:48;16.60;80.60
3268;DHT22;1646;52.450;13.326;2023-05-14T22:34:46;16.50;82.30
3268;DHT22;1646;52.450;13.326;2023-05-14T22:39:46;16.40;81.80
3268;DHT22;1646;52.450;13.326;2023-05-14T22:44:44;16.30;82.00
3268;DHT22;1646;52.450;13.326;2023-05-14T22:49:42;16.20;82.30
3268;DHT22;1646;52.450;13.326;2023-05-14T22:54:40;16.10;83.30
3268;DHT22;1646;52.450;13.326;2023-05-14T22:59:40;16.10;84.70
3268;DHT22;1646;52.450;13.326;2023-05-14T23:04:38;16.10;86.00
3268;DHT22;1646;52.450;13.326;2023-05-14T23:09:37;16.10;86.40
3268;DHT22;1646;52.450;13.326;2023-05-14T23:14:35;16.10;86.50
3268;DHT22;1646;52.450;13.326;2023-05-14T23:19:34;16.00;86.80
3268;DHT22;1646;52.450;13.326;2023-05-14T23:24:33;15.90;87.40
3268;DHT22;1646;52.450;13.326;2023-05-14T23:29:31;15.80;87.00
3268;DHT22;1646;52.450;13.326;2023-05-14T23:34:29;15.80;89.70
3268;DHT22;1646;52.450;13.326;2023-05-14T23:39:29;15.80;90.10
3268;DHT22;1646;52.450;13.326;2023-05-14T23:44:27;15.80;90.10
3268;DHT22;1646;52.450;13.326;2023-05-14T23:49:25;15.80;90.20
3268;DHT22;1646;52.450;13.326;2023-05-14T23:54:23;15.70;90.60
3268;DHT22;1646;52.450;13.326;2023-05-14T23:59:23;15.70;91.30
